Time;durP1;ratioP1;P1;durP2;ratioP2;P2;SDS_P1;SDS_P2;PMS_P1;PMS_P2;Temp;Humidity;BMP_temperature;BMP_pressure;BME280_temperature;BME280_humidity;BME280_pressure;Samples;Min_cycle;Max_cycle;Signal;HPM_P1;HPM_P2
2023/05/03 00:02:10;;;;;;;9.95;4.75;;;9.40;70.30;;;8.63;54.79;101771.72;5082533;28;20044;-86
2023/05/03 00:04:40;;;;;;;8.02;4.97;;;9.30;70.30;;;8.62;54.87;101769.25;5091307;28;20068;-86
2023/05/03 00:07:07;;;;;;;9.65;4.72;;;9.30;70.40;;;8.59;54.63;101769.56;5090254;28;20053;-85
2023/05/03 00:09:34;;;;;;;9.40;4.80;;;9.30;70.40;;;8.56;54.63;101770.75;5103241;28;20043;-87
2023/05/03 00:12:03;;;;;;;8.50;4.40;;;9.30;70.40;;;8.51;54.77;101765.09;5092474;28;20106;-85
2023/05/03 00:14:34;;;;;;;13.52;4.90;;;9.20;70.40;;;8.47;54.98;101771.72;5089784;28;20565;-87
2023/05/03 00:17:01;;;;;;;8.50;4.63;;;9.20;70.70;;;8.44;54.76;101766.75;5102616;28;20056;-86
2023/05/03 00:19:31;;;;;;;7.80;4.50;;;9.10;70.70;;;8.40;54.85;101770.75;5084722;28;20051;-87
2023/05/03 00:22:03;;;;;;;11.52;4.45;;;9.10;70.80;;;8.36;55.22;101774.69;5090678;28;20142;-85
2023/05/03 00:24:36;;;;;;;;;;;9.10;71.20;;;8.35;55.33;101775.69;5089026;28;20381;-85
2023/05/03 00:27:05;;;;;;;7.45;4.43;;;9.10;71.10;;;8.30;55.13;101778.00;5103117;27;20765;-87
2023/05/03 00:29:32;;;;;;;10.00;4.72;;;9.00;71.20;;;8.30;55.43;101778.00;5094997;27;20060;-87
2023/05/03 00:32:01;;;;;;;7.93;4.85;;;9.00;71.20;;;8.27;55.38;101779.16;5078384;28;20048;-87
2023/05/03 00:34:28;;;;;;;9.85;4.60;;;9.00;71.70;;;8.24;55.42;101772.34;5092193;28;20519;-86
2023/05/03 00:36:58;;;;;;;10.50;5.18;;;8.90;71.30;;;8.23;55.24;101765.34;5078518;28;20127;-85
2023/05/03 00:39:30;;;;;;;7.80;4.95;;;8.90;71.30;;;8.17;55.46;101771.34;5097193;27;20039;-85
2023/05/03 00:41:58;;;;;;;15.70;5.15;;;8.90;71.30;;;8.15;55.18;101780.44;5080953;28;20508;-85
2023/05/03 00:44:25;;;;;;;9.63;5.07;;;8.80;71.30;;;8.13;55.25;101780.63;5087947;28;20044;-87
2023/05/03 00:46:53;;;;;;;11.07;5.68;;;8.80;71.30;;;8.11;55.45;101781.78;5083743;28;20044;-87
2023/05/03 00:49:21;;;;;;;10.80;4.95;;;8.80;71.50;;;8.08;55.56;101788.25;5101881;28;20051;-86
2023/05/03 00:51:49;;;;;;;8.50;5.10;;;8.80;71.70;;;8.06;55.72;101779.63;5089260;28;20109;-85
2023/05/03 00:54:16;;;;;;;13.15;5.70;;;8.70;71.70;;;8.06;55.65;101789.41;5082455;28;20036;-85
2023/05/03 00:56:46;;;;;;;13.90;5.38;;;8.70;71.70;;;8.03;55.63;101784.41;5086900;28;20048;-87
2023/05/03 00:59:13;;;;;;;12.82;5.28;;;8.70;71.90;;;8.00;55.78;101778.44;5088050;28;20121;-85
2023/05/03 01:01:41;;;;;;;11.73;5.32;;;8.70;71.90;;;7.98;55.82;101774.28;5087263;28;20578;-85
2023/05/03 01:04:09;;;;;;;12.32;6.22;;;8.70;71.90;;;7.97;55.86;101775.28;5090683;28;20160;-86
2023/05/03 01:06:50;;;;;;;8.05;5.20;;;8.60;72.20;;;7.93;55.87;101774.75;5087181;28;20043;-85
2023/05/03 01:09:43;;;;;;;10.05;5.32;;;8.60;72.30;;;7.92;56.35;101774.94;5088998;28;20516;-84
2023/05/03 01:12:30;;;;;;;9.70;5.18;;;8.60;72.30;;;7.87;56.21;101775.41;5090614;28;20089;-85
2023/05/03 01:15:08;;;;;;;8.60;5.43;;;8.60;72.20;;;7.85;56.15;101780.03;5087234;28;20047;-85
2023/05/03 01:17:41;;;;;;;8.90;5.15;;;8.60;72.30;;;7.85;55.96;101777.38;5079529;28;20097;-87
2023/05/03 01:20:13;;;;;;;10.10;5.30;;;8.50;72.30;;;7.83;55.87;101784.69;5086684;28;20044;-87
2023/05/03 01:22:50;;;;;;;12.20;5.60;;;8.50;72.30;;;7.81;56.02;101785.81;5090604;28;20055;-88
2023/05/03 01:25:20;;;;;;;8.57;5.57;;;8.50;72.50;;;7.79;56.01;101779.84;5086300;28;20047;-86
2023/05/03 01:27:49;;;;;;;7.90;5.10;;;8.50;72.70;;;7.76;56.29;101783.69;5091217;28;20105;-86
2023/05/03 01:30:21;;;;;;;11.73;6.00;;;8.40;72.80;;;7.72;56.79;101785.81;5086685;28;20052;-87
2023/05/03 01:33:03;;;;;;;10.80;5.68;;;8.40;72.80;;;7.73;56.34;101786.66;5086480;28;20075;-87
2023/05/03 01:35:39;;;;;;;13.93;5.90;;;8.40;72.70;;;7.71;56.52;101781.50;5087442;28;20075;-86
2023/05/03 01:38:07;;;;;;;13.18;5.32;;;8.40;72.80;;;7.69;56.32;101790.59;5086823;28;20051;-87
2023/05/03 01:40:45;;;;;;;9.73;5.63;;;8.60;72.90;;;7.66;56.42;101783.81;5080498;28;20073;-85
2023/05/03 01:43:16;;;;;;;12.13;5.80;;;8.30;72.90;;;7.64;56.48;101791.09;5079813;28;20047;-87
2023/05/03 01:45:44;;;;;;;11.98;5.88;;;8.30;72.90;;;7.62;56.86;101782.47;5089782;28;20496;-85
2023/05/03 01:48:14;;;;;;;9.85;5.10;;;8.30;73.10;;;7.60;56.79;101788.91;5081578;28;20219;-87
2023/05/03 01:50:41;;;;;;;10.65;6.15;;;8.30;73.20;;;7.60;56.81;101797.69;5082811;28;20719;-85
2023/05/03 01:53:09;;;;;;;11.75;6.05;;;8.30;73.10;;;7.57;56.48;101784.75;5089016;28;20052;-84
2023/05/03 01:55:38;;;;;;;10.02;5.60;;;8.30;73.10;;;7.54;56.67;101798.34;5091647;28;20403;-85
2023/05/03 01:58:05;;;;;;;9.80;5.18;;;8.20;73.00;;;7.51;56.55;101790.69;5092916;28;20072;-85
2023/05/03 02:00:32;;;;;;;14.48;5.85;;;8.20;73.20;;;7.49;56.66;101801.47;5074066;28;20044;-87
2023/05/03 02:03:00;;;;;;;14.65;6.55;;;8.20;73.30;;;7.49;57.19;101792.69;5097741;28;20051;-85
2023/05/03 02:05:27;;;;;;;12.32;6.40;;;8.10;73.50;;;7.47;56.84;101802.63;5084598;28;20556;-86
2023/05/03 02:07:54;;;;;;;9.48;5.70;;;8.10;73.50;;;7.46;56.90;101808.91;5086241;28;20420;-87
2023/05/03 02:10:21;;;;;;;11.10;5.95;;;8.10;73.50;;;7.42;57.11;101805.75;5091285;28;20043;-88
2023/05/03 02:12:50;;;;;;;10.65;6.05;;;8.10;73.50;;;7.41;57.06;101808.53;5100569;28;20062;-85
2023/05/03 02:15:18;;;;;;;10.82;5.38;;;8.10;73.70;;;7.40;56.86;101820.16;5083771;28;20041;-87
2023/05/03 02:17:48;;;;;;;10.05;5.78;;;8.10;73.70;;;7.37;57.17;101817.81;5090135;28;20392;-86
2023/05/03 02:20:18;;;;;;;14.68;6.38;;;8.00;73.60;;;7.34;57.17;101821.63;5078930;28;20466;-86
2023/05/03 02:22:45;;;;;;;12.48;6.07;;;8.00;73.70;;;7.34;56.96;101826.09;5078658;28;20048;-87
2023/05/03 02:25:12;;;;;;;10.43;5.90;;;8.00;73.50;;;7.31;57.18;101821.91;5082986;28;20068;-88
2023/05/03 02:27:40;;;;;;;10.07;5.88;;;8.00;73.50;;;7.28;57.10;101818.78;5066483;28;20044;-87
2023/05/03 02:30:09;;;;;;;9.55;6.28;;;7.90;73.70;;;7.26;57.01;101824.22;5068689;28;20044;-87
2023/05/03 02:32:42;;;;;;;10.63;6.13;;;8.00;73.80;;;7.22;57.18;101813.09;5083661;28;20117;-86
2023/05/03 02:35:10;;;;;;;11.48;6.68;;;7.90;73.80;;;7.21;57.33;101819.38;5089371;28;20058;-86
2023/05/03 02:37:38;;;;;;;12.27;6.10;;;7.90;74.00;;;7.20;57.76;101822.19;5086233;28;20154;-84
2023/05/03 02:40:10;;;;;;;13.13;6.13;;;7.90;74.40;;;7.19;57.41;101826.66;5089483;28;20078;-88
2023/05/03 02:42:38;;;;;;;11.02;5.97;;;7.90;74.10;;;7.18;57.51;101832.13;5086381;28;20048;-84
2023/05/03 02:45:10;;;;;;;10.73;6.40;;;7.90;74.20;;;7.16;57.71;101837.59;5076406;28;20053;-87
2023/05/03 02:47:43;;;;;;;11.25;6.05;;;7.80;74.10;;;7.16;57.19;101839.41;5075964;28;20492;-86
2023/05/03 02:50:11;;;;;;;11.05;6.18;;;7.80;74.10;;;7.15;57.46;101827.97;5078715;28;20500;-85
2023/05/03 02:52:40;;;;;;;11.50;6.40;;;7.80;74.20;;;7.14;57.45;101831.59;5087121;28;20134;-88
2023/05/03 02:55:08;;;;;;;11.85;6.10;;;7.80;74.40;;;7.14;57.35;101836.09;5089400;28;20122;-85
2023/05/03 02:57:36;;;;;;;10.35;6.05;;;7.80;74.40;;;7.13;57.90;101827.31;5089088;28;20050;-86
2023/05/03 03:00:10;;;;;;;10.13;6.05;;;7.80;74.50;;;7.12;57.64;101822.94;5088275;28;20054;-87
2023/05/03 03:02:38;;;;;;;12.65;5.88;;;7.80;74.60;;;7.13;57.91;101823.81;5100877;27;20072;-87
2023/05/03 03:05:07;;;;;;;11.60;6.05;;;7.80;74.70;;;7.10;57.99;101810.84;5085976;28;20137;-87
2023/05/03 03:07:37;;;;;;;16.95;6.55;;;7.80;74.60;;;7.10;57.95;101816.16;5100565;27;20077;-88
2023/05/03 03:10:07;;;;;;;11.88;6.25;;;7.80;74.60;;;7.09;58.00;101815.31;5084879;28;20055;-85
2023/05/03 03:12:35;;;;;;;12.73;6.03;;;7.80;74.60;;;7.07;57.71;101809.31;5086920;28;20051;-85
2023/05/03 03:15:15;;;;;;;12.10;6.15;;;7.70;74.60;;;7.05;57.85;101799.88;5092475;28;20048;-85
2023/05/03 03:17:43;;;;;;;10.85;6.55;;;7.70;74.70;;;7.02;57.76;101816.91;5077058;28;20124;-84
2023/05/03 03:20:12;;;;;;;10.48;6.38;;;7.70;74.70;;;7.01;57.87;101806.47;5082947;28;20310;-86
2023/05/03 03:22:44;;;;;;;12.20;6.43;;;7.70;74.70;;;6.98;57.43;101799.66;5089182;28;20142;-89
2023/05/03 03:25:12;;;;;;;10.45;6.68;;;7.70;74.60;;;6.97;57.94;101792.69;5089857;28;20043;-85
2023/05/03 03:27:39;;;;;;;10.95;6.35;;;7.60;74.50;;;6.94;57.83;101795.66;5093453;28;20048;-87
2023/05/03 03:30:10;;;;;;;11.65;6.30;;;7.60;74.60;;;6.91;58.06;101796.78;5104572;28;20140;-86
2023/05/03 03:32:46;;;;;;;10.95;6.30;;;7.60;74.60;;;6.90;58.03;101789.81;5086517;28;20098;-87
2023/05/03 03:35:20;;;;;;;13.55;6.47;;;7.60;74.50;;;6.88;57.66;101793.59;5088633;28;20044;-87
2023/05/03 03:37:48;;;;;;;11.50;6.03;;;7.60;74.60;;;6.83;57.75;101787.94;5089790;28;20072;-88
2023/05/03 03:40:15;;;;;;;11.45;5.93;;;7.60;74.50;;;6.83;57.48;101779.97;5085808;28;20101;-88
2023/05/03 03:42:43;;;;;;;11.02;5.90;;;7.50;74.40;;;6.81;57.91;101777.50;5094140;28;20043;-85
2023/05/03 03:45:12;;;;;;;11.45;6.38;;;7.60;74.70;;;6.77;57.78;101786.72;5085583;28;20051;-85
2023/05/03 03:47:39;;;;;;;11.48;6.00;;;7.50;74.70;;;6.78;57.94;101784.91;5082634;28;20048;-87
2023/05/03 03:50:07;;;;;;;10.32;6.05;;;7.50;74.70;;;6.75;57.97;101787.88;5101643;28;20411;-86
2023/05/03 03:52:35;;;;;;;10.35;5.80;;;7.40;74.50;;;6.73;57.80;101788.00;5093307;28;20136;-87
2023/05/03 03:55:05;;;;;;;10.27;5.75;;;7.40;74.50;;;6.71;57.37;101776.75;5084587;28;20039;-88
2023/05/03 03:57:33;;;;;;;10.68;6.43;;;7.40;74.40;;;6.69;57.90;101776.91;5085951;28;20040;-85
2023/05/03 04:00:02;;;;;;;11.35;5.90;;;7.40;74.50;;;6.65;58.02;101782.66;5077617;28;20052;-86
2023/05/03 04:02:41;;;;;;;13.60;6.32;;;7.40;74.60;;;6.62;57.78;101770.53;5088268;28;20152;-87
2023/05/03 04:05:15;;;;;;;9.65;5.95;;;7.30;74.70;;;6.62;58.15;101770.53;5103913;27;20044;-87
2023/05/03 04:07:44;;;;;;;12.23;6.25;;;7.30;74.80;;;6.58;58.11;101766.53;5088961;28;20055;-87
2023/05/03 04:10:14;;;;;;;14.50;6.68;;;7.30;74.90;;;6.61;58.45;101768.06;5087964;28;20143;-81
2023/05/03 04:12:41;;;;;;;11.15;6.18;;;7.30;75.20;;;6.59;58.28;101760.25;5084957;28;20155;-83
2023/05/03 04:15:18;;;;;;;13.73;6.38;;;7.30;75.50;;;6.57;58.53;101753.44;5090611;28;20039;-78
2023/05/03 04:17:48;;;;;;;12.30;6.25;;;7.30;75.30;;;6.57;58.01;101753.44;5081157;28;20055;-84
2023/05/03 04:20:17;;;;;;;11.15;6.53;;;7.30;75.20;;;6.55;58.23;101748.28;5091071;28;20661;-83
2023/05/03 04:22:48;;;;;;;13.52;6.90;;;7.30;75.50;;;6.55;58.21;101745.66;5086120;28;20105;-83
2023/05/03 04:25:17;;;;;;;12.60;6.40;;;7.20;75.40;;;6.55;58.31;101750.13;5088053;28;20135;-80
2023/05/03 04:27:52;;;;;;;11.95;6.05;;;7.20;75.40;;;6.55;58.46;101758.91;5087768;28;20048;-81
2023/05/03 04:30:21;;;;;;;12.15;6.65;;;7.20;75.60;;;6.54;58.79;101770.50;5084941;28;20049;-81
2023/05/03 04:32:54;;;;;;;11.00;6.45;;;7.20;75.80;;;6.55;58.96;101766.84;5094004;28;20507;-82
2023/05/03 04:35:22;;;;;;;12.95;6.43;;;7.30;75.90;;;6.57;58.83;101775.47;5079777;28;20093;-82
2023/05/03 04:37:49;;;;;;;12.10;6.50;;;7.30;75.80;;;6.55;58.61;101772.16;5084545;28;20063;-79
2023/05/03 04:40:21;;;;;;;12.30;6.57;;;7.30;75.80;;;6.56;58.99;101784.41;5091960;28;20044;-81
2023/05/03 04:42:57;;;;;;;11.73;6.53;;;7.20;76.00;;;6.58;59.05;101798.31;5084652;28;20055;-81
2023/05/03 04:45:25;;;;;;;12.05;6.30;;;7.30;76.20;;;6.58;58.75;101808.94;5086760;28;20072;-78
2023/05/03 04:47:55;;;;;;;11.50;6.38;;;7.30;76.20;;;6.62;59.21;101793.56;5082011;28;20039;-79
2023/05/03 04:50:22;;;;;;;10.95;6.82;;;7.30;76.40;;;6.69;59.19;101799.94;5083095;28;20115;-81
2023/05/03 04:52:51;;;;;;;15.38;6.43;;;7.40;76.30;;;6.79;59.73;101803.34;5084085;28;20435;-87
2023/05/03 04:55:20;;;;;;;9.80;6.50;;;7.60;76.60;;;6.94;59.46;101803.63;5082003;28;20045;-80
2023/05/03 04:57:48;;;;;;;11.90;6.88;;;7.60;76.40;;;7.05;59.61;101800.69;5080133;28;20144;-82
2023/05/03 05:00:16;;;;;;;10.65;6.40;;;7.80;76.50;;;7.20;59.76;101801.78;5080404;28;20518;-82
2023/05/03 05:02:48;;;;;;;13.93;7.45;;;7.90;76.70;;;7.37;59.64;101808.06;5085151;28;20135;-82
2023/05/03 05:05:18;;;;;;;15.32;6.55;;;8.00;76.30;;;7.51;59.24;101803.94;5084142;28;20112;-83
2023/05/03 05:07:46;;;;;;;16.50;7.55;;;8.20;76.40;;;7.64;59.17;101793.75;5085329;28;20574;-81
2023/05/03 05:10:14;;;;;;;13.80;7.38;;;8.30;76.20;;;7.79;59.23;101801.09;5083263;28;20066;-83
2023/05/03 05:12:42;;;;;;;15.75;8.20;;;8.50;76.20;;;7.92;59.08;101801.50;5081081;28;20398;-81
2023/05/03 05:15:11;;;;;;;16.27;7.97;;;8.60;76.10;;;8.07;59.05;101802.53;5081514;28;20123;-81
2023/05/03 05:17:39;;;;;;;18.00;7.93;;;8.70;76.50;;;8.17;58.66;101805.88;5105839;22;20044;-80
2023/05/03 05:20:11;;;;;;;18.27;8.02;;;8.80;76.00;;;8.30;58.70;101801.94;5063019;28;20068;-80
2023/05/03 05:22:41;;;;;;;12.82;7.72;;;8.90;75.60;;;8.40;58.37;101813.28;5064358;28;20040;-80
2023/05/03 05:25:09;;;;;;;12.90;7.60;;;9.00;75.30;;;8.52;58.63;101817.28;5066153;28;20045;-80
2023/05/03 05:27:36;;;;;;;14.48;7.82;;;9.10;75.90;;;8.64;58.29;101820.47;5052530;28;20041;-80
2023/05/03 05:30:07;;;;;;;17.88;7.60;;;9.20;75.60;;;8.74;58.12;101826.44;5055091;28;20053;-81
2023/05/03 05:32:36;;;;;;;15.00;8.13;;;9.40;75.20;;;8.87;57.63;101833.91;5065224;28;20048;-81
2023/05/03 05:35:04;;;;;;;13.32;7.65;;;9.50;74.60;;;8.96;57.19;101832.91;5066482;28;20056;-81
2023/05/03 05:37:31;;;;;;;18.30;8.15;;;9.60;74.10;;;9.05;57.59;101839.06;5079526;28;20567;-82
2023/05/03 05:40:04;;;;;;;16.83;8.20;;;9.70;74.70;;;9.14;57.19;101846.06;5061934;28;20050;-82
2023/05/03 05:42:37;;;;;;;20.67;8.77;;;9.70;74.40;;;9.25;56.79;101843.88;5065254;28;20131;-83
2023/05/03 05:45:07;;;;;;;16.88;8.05;;;9.90;73.70;;;9.33;56.51;101844.88;5062672;28;20668;-81
2023/05/03 05:47:34;;;;;;;18.02;8.65;;;10.00;73.50;;;9.42;56.58;101847.34;5065694;28;20455;-83
2023/05/03 05:50:03;;;;;;;14.95;8.15;;;10.00;73.50;;;9.49;56.40;101839.50;5057758;28;20056;-83
2023/05/03 05:52:31;;;;;;;15.20;8.48;;;10.10;73.20;;;9.57;56.26;101852.81;5064402;28;20037;-82
2023/05/03 05:54:58;;;;;;;14.85;8.93;;;10.20;73.00;;;9.62;55.38;101854.97;5063945;28;20057;-81
2023/05/03 05:57:27;;;;;;;18.00;8.93;;;10.20;72.00;;;9.66;55.41;101846.47;5057928;28;20044;-82
2023/05/03 05:59:55;;;;;;;15.60;8.23;;;10.30;72.00;;;9.73;55.07;101855.41;5060210;28;20551;-84
2023/05/03 06:02:23;;;;;;;15.55;8.55;;;10.40;71.60;;;9.78;55.14;101861.06;5055442;28;20740;-83
2023/05/03 06:04:51;;;;;;;17.67;8.75;;;10.40;71.70;;;9.84;55.49;101858.72;5052684;28;20139;-83
2023/05/03 06:07:18;;;;;;;16.23;7.90;;;10.50;71.90;;;9.90;54.49;101864.16;5081440;28;20049;-81
2023/05/03 06:09:46;;;;;;;17.80;8.07;;;10.60;70.70;;;9.97;54.82;101861.66;5065846;28;20052;-82
2023/05/03 06:12:16;;;;;;;17.20;8.30;;;10.60;71.30;;;10.00;54.13;101856.84;5060162;28;20475;-81
2023/05/03 06:14:45;;;;;;;14.23;7.85;;;10.70;70.50;;;10.08;54.14;101863.94;5062616;28;20057;-82
2023/05/03 06:17:12;;;;;;;15.27;8.30;;;10.70;70.50;;;10.17;54.42;101862.06;5064801;28;20098;-81
2023/05/03 06:19:40;;;;;;;12.88;7.22;;;10.80;70.80;;;10.28;54.12;101875.03;5058742;28;20049;-83
2023/05/03 06:22:07;;;;;;;13.95;8.18;;;10.90;70.40;;;10.38;53.95;101874.81;5056176;28;20053;-81
2023/05/03 06:24:35;;;;;;;15.30;7.80;;;11.00;69.90;;;10.46;53.36;101858.78;5066533;28;20098;-84
2023/05/03 06:27:02;;;;;;;15.15;8.27;;;11.10;69.30;;;10.56;53.16;101862.88;5061884;28;20611;-82
2023/05/03 06:29:31;;;;;;;12.15;7.30;;;11.20;69.00;;;10.64;52.80;101856.66;5061980;28;20922;-84
2023/05/03 06:32:00;;;;;;;11.90;7.47;;;11.30;68.90;;;10.74;52.98;101862.59;5069641;28;20052;-83
2023/05/03 06:34:27;;;;;;;17.58;8.13;;;11.40;69.00;;;10.86;52.84;101863.00;5070072;28;20143;-84
2023/05/03 06:36:55;;;;;;;17.67;7.55;;;11.50;68.90;;;11.00;53.30;101862.22;5066037;28;20044;-83
2023/05/03 06:39:23;;;;;;;20.35;8.57;;;11.60;69.10;;;11.12;53.09;101859.94;5051272;28;20691;-83
2023/05/03 06:41:51;;;;;;;14.93;7.82;;;11.70;68.90;;;11.21;52.02;101864.19;5055767;28;20496;-83
2023/05/03 06:44:18;;;;;;;12.75;7.95;;;11.80;67.50;;;11.28;51.75;101862.47;5068796;28;20126;-82
2023/05/03 06:46:46;;;;;;;15.57;7.68;;;11.90;67.30;;;11.40;51.76;101856.69;5058204;28;20044;-83
2023/05/03 06:49:15;;;;;;;15.32;7.80;;;12.00;67.40;;;11.48;51.27;101851.28;5061659;28;20508;-83
2023/05/03 06:51:42;;;;;;;26.52;8.40;;;12.10;66.70;;;11.55;50.84;101852.19;5064070;28;20053;-83
2023/05/03 06:54:09;;;;;;;12.05;7.93;;;12.20;65.90;;;11.64;50.69;101848.41;5056743;28;20041;-83
2023/05/03 06:56:36;;;;;;;12.70;7.43;;;12.30;66.10;;;11.74;51.09;101845.47;5069812;28;20488;-81
2023/05/03 06:59:04;;;;;;;20.58;8.80;;;12.40;66.20;;;11.77;50.68;101848.59;5062952;28;20045;-82
2023/05/03 07:01:32;;;;;;;16.75;7.85;;;12.50;65.80;;;11.86;50.72;101854.72;5059694;28;20051;-83
2023/05/03 07:04:00;;;;;;;27.67;8.77;;;12.50;65.40;;;11.93;50.82;101858.28;5060540;28;20136;-82
2023/05/03 07:06:28;;;;;;;14.70;7.80;;;12.60;65.60;;;12.05;50.81;101859.50;5055743;28;20120;-82
2023/05/03 07:08:55;;;;;;;15.02;7.50;;;12.70;66.00;;;12.17;51.11;101854.50;5059859;28;20044;-81
2023/05/03 07:11:23;;;;;;;15.38;8.20;;;12.90;66.20;;;12.27;49.86;101865.72;5059121;28;20045;-83
2023/05/03 07:13:51;;;;;;;17.38;7.18;;;12.90;64.30;;;12.32;49.37;101855.28;5060053;28;20051;-83
2023/05/03 07:16:18;;;;;;;15.13;7.07;;;13.00;63.80;;;12.40;49.17;101848.19;5055154;28;20481;-83
2023/05/03 07:18:46;;;;;;;11.98;6.72;;;13.10;63.60;;;12.43;49.03;101848.59;5061319;28;20119;-83
2023/05/03 07:21:13;;;;;;;11.90;6.47;;;13.10;63.50;;;12.52;49.15;101852.00;5054332;28;20575;-82
2023/05/03 07:23:42;;;;;;;15.75;6.75;;;13.30;63.30;;;12.54;47.87;101847.28;5055601;28;20134;-84
2023/05/03 07:26:09;;;;;;;10.00;6.05;;;13.30;62.10;;;12.63;48.59;101848.81;5057992;28;20037;-83
2023/05/03 07:28:36;;;;;;;16.13;6.95;;;13.40;62.70;;;12.73;48.82;101846.63;5057274;28;20097;-82
2023/05/03 07:31:04;;;;;;;14.90;7.30;;;13.50;62.90;;;12.80;48.74;101847.53;5060886;28;20058;-84
2023/05/03 07:33:34;;;;;;;16.55;7.15;;;13.50;62.90;;;12.87;47.50;101835.03;5061314;28;20036;-84
2023/05/03 07:36:01;;;;;;;10.98;6.47;;;13.60;61.00;;;12.92;47.37;101831.78;5065531;28;20045;-82
2023/05/03 07:38:28;;;;;;;9.90;6.18;;;13.60;60.70;;;12.94;47.16;101823.56;5056691;28;20051;-82
2023/05/03 07:40:57;;;;;;;11.25;6.43;;;13.70;61.00;;;12.96;46.78;101822.34;5063707;28;20129;-83
2023/05/03 07:43:24;;;;;;;14.45;6.82;;;13.70;60.20;;;13.03;46.97;101828.59;5061706;28;20036;-82
2023/05/03 07:45:51;;;;;;;14.10;6.75;;;13.80;60.20;;;13.06;46.72;101819.31;5064153;28;20064;-82
2023/05/03 07:48:18;;;;;;;15.13;6.80;;;13.80;60.20;;;13.10;45.99;101815.25;5054215;28;20052;-82
2023/05/03 07:50:46;;;;;;;11.60;6.15;;;13.90;59.00;;;13.11;45.72;101808.84;5063915;28;20040;-82
2023/05/03 07:53:14;;;;;;;11.45;6.60;;;13.80;58.50;;;13.14;46.98;101809.31;5058410;28;20045;-82
2023/05/03 07:55:41;;;;;;;11.30;6.07;;;13.90;60.20;;;13.09;45.22;101808.25;5064376;28;20053;-82
2023/05/03 07:58:10;;;;;;;13.48;6.47;;;13.90;58.10;;;13.11;46.12;101811.53;5063628;28;20473;-84
2023/05/03 08:00:37;;;;;;;11.77;5.53;;;13.90;58.70;;;13.14;45.88;101805.81;5062443;28;20040;-82
2023/05/03 08:03:05;;;;;;;12.38;5.95;;;13.90;58.90;;;13.19;46.42;101808.72;5064757;28;20083;-81
2023/05/03 08:05:38;;;;;;;14.00;6.47;;;14.00;59.60;;;13.31;47.29;101815.22;5059950;28;20500;-83
2023/05/03 08:08:05;;;;;;;11.90;6.63;;;14.00;60.40;;;13.38;46.42;101808.06;5062802;28;20125;-81
2023/05/03 08:10:36;;;;;;;11.32;5.60;;;14.10;59.20;;;13.39;45.70;101812.38;5061289;28;20142;-81
2023/05/03 08:13:04;;;;;;;12.65;6.07;;;14.20;58.70;;;13.37;44.75;101805.56;5060038;28;20091;-83
2023/05/03 08:15:40;;;;;;;10.45;5.63;;;14.20;57.10;;;13.45;45.03;101808.09;5065483;28;20113;-83
2023/05/03 08:18:07;;;;;;;12.93;5.20;;;14.20;57.40;;;13.49;45.21;101816.56;5061053;28;20094;-82
2023/05/03 08:20:35;;;;;;;12.00;5.32;;;14.30;57.70;;;13.55;45.15;101799.69;5063087;28;20049;-84
2023/05/03 08:23:05;;;;;;;13.18;4.95;;;14.30;57.80;;;13.61;45.00;101801.56;5052106;28;20080;-84
2023/05/03 08:25:33;;;;;;;14.40;4.60;;;14.40;57.40;;;13.58;43.44;101805.50;5056161;28;20554;-83
2023/05/03 08:28:00;;;;;;;9.02;4.78;;;14.40;55.40;;;13.54;43.37;101795.34;5060981;28;20118;-82
2023/05/03 08:30:29;;;;;;;9.90;4.50;;;14.30;54.90;;;13.59;44.04;101795.59;5065939;28;20122;-83
2023/05/03 08:32:57;;;;;;;10.82;4.90;;;14.30;56.10;;;13.59;44.26;101793.72;5059352;28;20131;-82
2023/05/03 08:35:26;;;;;;;9.70;4.60;;;14.40;56.30;;;13.59;42.90;101796.41;5048723;28;20106;-81
2023/05/03 08:37:54;;;;;;;10.40;3.83;;;14.40;54.80;;;13.53;42.18;101794.53;5062524;28;20567;-83
2023/05/03 08:40:22;;;;;;;9.82;4.20;;;14.30;54.40;;;13.54;42.94;101790.00;5059077;28;20428;-84
2023/05/03 08:42:50;;;;;;;12.48;4.45;;;14.30;54.50;;;13.50;42.26;101794.09;5062806;28;20044;-84
2023/05/03 08:45:17;;;;;;;8.55;4.35;;;14.30;54.50;;;13.43;42.27;101793.25;5068228;28;20111;-81
2023/05/03 08:47:45;;;;;;;11.32;4.70;;;14.20;54.20;;;13.37;41.76;101798.38;5059994;28;20045;-83
2023/05/03 08:50:15;;;;;;;10.43;5.07;;;14.20;53.70;;;13.31;42.79;101791.09;5062517;28;20120;-81
2023/05/03 08:52:43;;;;;;;10.05;4.35;;;14.10;54.30;;;13.37;43.71;101789.47;5059488;28;20132;-82
2023/05/03 08:55:11;;;;;;;11.93;4.35;;;14.10;55.50;;;13.27;42.42;101771.06;5066070;28;20046;-82
2023/05/03 08:57:39;;;;;;;11.30;4.63;;;14.00;54.50;;;13.21;41.75;101773.69;5057036;28;20102;-83
2023/05/03 09:00:09;;;;;;;7.63;3.70;;;14.00;54.00;;;13.06;41.70;101782.66;5065396;28;20062;-83
2023/05/03 09:02:38;;;;;;;9.32;4.32;;;13.90;53.80;;;13.01;42.21;101786.94;5062228;28;20054;-82
2023/05/03 09:05:21;;;;;;;9.45;4.13;;;13.80;54.50;;;12.96;42.46;101789.38;5061675;28;20460;-81
2023/05/03 09:08:03;;;;;;;8.15;4.28;;;13.70;54.50;;;13.01;43.42;101786.94;5075437;28;20497;-80
2023/05/03 09:10:31;;;;;;;8.52;3.83;;;13.70;55.10;;;13.04;43.23;101784.72;5067042;28;20417;-81
2023/05/03 09:13:00;;;;;;;12.85;4.55;;;13.80;54.60;;;13.02;42.67;101781.38;5061045;28;20052;-82
2023/05/03 09:15:29;;;;;;;10.68;4.28;;;13.80;54.10;;;12.82;42.39;101780.41;5060458;28;21221;-83
2023/05/03 09:18:18;;;;;;;8.95;4.15;;;13.60;54.40;;;12.76;42.78;101779.34;5061637;28;20501;-81
2023/05/03 09:20:51;;;;;;;12.73;4.82;;;13.50;54.10;;;12.82;43.55;101770.53;5055357;28;20064;-83
2023/05/03 09:23:29;;;;;;;10.90;4.20;;;13.50;55.10;;;12.86;44.67;101781.69;5059011;28;20044;-83
2023/05/03 09:25:58;;;;;;;9.82;4.50;;;13.60;56.50;;;12.89;44.08;101787.50;5062112;28;20459;-81
2023/05/03 09:28:26;;;;;;;7.57;4.13;;;13.60;55.80;;;12.91;43.25;101778.44;5064910;28;20041;-83
2023/05/03 09:31:07;;;;;;;11.70;4.57;;;13.60;54.60;;;12.91;43.11;101781.94;5053225;28;20075;-81
2023/05/03 09:33:34;;;;;;;9.80;4.53;;;13.60;54.70;;;12.88;43.36;101780.47;5058308;28;20043;-82
2023/05/03 09:36:04;;;;;;;7.25;4.10;;;13.60;54.90;;;12.87;43.41;101767.25;5059663;28;20068;-82
2023/05/03 09:38:35;;;;;;;9.30;4.53;;;13.60;55.20;;;12.82;43.97;101759.81;5060650;28;20044;-83
2023/05/03 09:41:04;;;;;;;9.38;4.38;;;13.60;55.70;;;12.86;44.13;101754.91;5062875;28;20102;-80
2023/05/03 09:43:32;;;;;;;9.38;4.43;;;13.60;55.90;;;12.89;43.70;101765.25;5060497;28;20041;-81
2023/05/03 09:46:11;;;;;;;9.77;4.90;;;13.60;55.60;;;12.94;44.72;101770.84;5062608;28;20135;-80
2023/05/03 09:48:40;;;;;;;8.38;4.40;;;13.60;56.60;;;12.85;43.25;101761.28;5060312;28;20715;-80
2023/05/03 09:51:08;;;;;;;10.73;4.13;;;13.60;54.90;;;12.86;44.62;101755.72;5066406;28;20044;-83
2023/05/03 09:53:40;;;;;;;15.05;5.05;;;13.60;57.00;;;12.94;43.77;101759.31;5059251;28;20048;-82
2023/05/03 09:56:11;;;;;;;9.75;4.38;;;13.60;55.50;;;12.93;43.57;101760.31;5065072;28;20045;-81
2023/05/03 09:58:39;;;;;;;9.25;4.32;;;13.60;55.10;;;13.00;44.90;101771.91;5057663;28;20045;-81
2023/05/03 10:01:07;;;;;;;9.00;4.38;;;13.70;57.50;;;13.06;44.09;101763.91;5050445;28;20040;-79
2023/05/03 10:03:40;;;;;;;9.48;4.55;;;13.70;56.30;;;13.08;42.44;101755.69;5071568;28;20040;-81
2023/05/03 10:06:20;;;;;;;12.27;4.03;;;13.70;54.70;;;13.11;43.47;101763.31;5063430;28;20047;-81
2023/05/03 10:08:54;;;;;;;10.93;4.90;;;13.80;55.40;;;13.10;43.38;101741.06;5072182;28;20127;-82
2023/05/03 10:11:26;;;;;;;9.00;4.25;;;13.80;55.10;;;13.14;43.01;101741.50;5069441;28;20054;-80
2023/05/03 10:13:54;;;;;;;13.82;4.93;;;13.80;54.20;;;13.16;45.40;101739.44;5052728;28;20153;-80
2023/05/03 10:16:32;;;;;;;7.22;4.03;;;13.90;57.90;;;13.18;43.82;101742.78;5070534;28;20586;-80
2023/05/03 10:19:09;;;;;;;7.97;4.15;;;13.90;55.70;;;13.18;42.97;101728.56;5070218;28;20052;-81
2023/05/03 10:21:59;;;;;;;10.50;4.43;;;13.90;54.40;;;13.17;42.90;101722.34;5070999;28;20127;-82
2023/05/03 10:24:27;;;;;;;8.73;4.47;;;13.90;54.50;;;13.19;42.31;101722.16;5069703;28;20119;-82
2023/05/03 10:26:56;;;;;;;9.60;4.32;;;13.90;54.40;;;13.11;42.02;101725.81;5056908;28;20067;-81